Marshall Municipal-Ryan, MN

04:09 PM CST am 28. Januar 2015 (GMT -0600)
Tracy | Change Station
CLOSE
Current Station
Flughafen
Location: Tracy,
Höhe: 1339 ft
Wetterstationen in der Umgebung
aktive Warnung: Wind Advisory

Höhe 1339 ft 44.25 °N, 95.61 °W | Updated 16 minutes ago

Bedeckt
Bedeckt
34 °F
gefühlte 34 °F
N
0
Wind Wechselnd Wind aus Nord

Heute
Max. -- | schwach -- °F
--% Regenrisiko
Gestern
Max. -- | schwach -- °F
Precip. -- inch
7:46 AM 5:26 PM
Zweites Viertel, 68% visible
Druck 29.73 inch
Sichtweite 3.0 Meilen
Wolken Bedeckt 700 ft
Taupunkt 32 °F
Feuchtigkeit 92%
Regen 0.00 inch
Schneehöhe Nicht verfügbar..
UV 0 von 12
Pollen .90 von 12
Luftqualität Nicht verfügbar..
Flu Activity Nicht verfügbar..
METAR KTKC 282153Z AUTO 00000KT 3SM BR OVC007 01/00 A2973 RMK AO2 T00130001

More Conditions Fewer Conditions

Druck 29.73 inch
Sichtweite 3.0 Meilen
Wolken Bedeckt 700 ft
Taupunkt 32 °F
Feuchtigkeit 92%
Regen 0.00 inch
Schneehöhe Nicht verfügbar..
UV 0 von 12
Pollen .90 von 12
Luftqualität Nicht verfügbar..
Flu Activity Nicht verfügbar..
METAR KTKC 282153Z AUTO 00000KT 3SM BR OVC007 01/00 A2973 RMK AO2 T00130001

More Conditions Fewer Conditions

10-Day Weather Forecast

Almanac

Astronomie

Jan. 28, 2015 Aufgang Untergang
Genaue Zeit
Bürgerliche Dämmerung
Nautische Dämmerung
Astronomische Dämmerung
Mond
Länge des sichtbaren Lichts
Tageslänge
Tomorrow will be .
, % of the Moon is Illuminated

Heutige Rekorde

State Highs State Lows

Community

WunderPhotos

Upload Photos

1,791,276 Fotos hochgeladen!

WunderBlogs® & News

Nearby

Luftqualität

  Luftqualität LQ Index Schadstoff
Not available.

Schneehöhe

Station Depth Höhe

Erdbebenaktivität

Stadt Distance Mag. Time & Date
Minimum magnitude displayed is 2.5.

küstennahe Wassertemperaturen

Ort Temperatur

Wetterstationen in der Umgebung